sensor_id;sensor_type;location;lat;lon;timestamp;P1;durP1;ratioP1;P2;durP2;ratioP2
29380;SDS011;16364;52.490;13.326;2022-09-12T00:01:23;2.60;;;2.03;;
29380;SDS011;16364;52.490;13.326;2022-09-12T00:03:56;2.40;;;2.20;;
29380;SDS011;16364;52.490;13.326;2022-09-12T00:06:29;2.33;;;2.07;;
29380;SDS011;16364;52.490;13.326;2022-09-12T00:08:56;2.80;;;2.60;;
29380;SDS011;16364;52.490;13.326;2022-09-12T00:11:21;2.47;;;2.23;;
29380;SDS011;16364;52.490;13.326;2022-09-12T00:13:47;2.27;;;2.07;;
29380;SDS011;16364;52.490;13.326;2022-09-12T00:16:16;2.47;;;1.97;;
29380;SDS011;16364;52.490;13.326;2022-09-12T00:18:43;2.20;;;1.83;;
29380;SDS011;16364;52.490;13.326;2022-09-12T00:21:10;2.80;;;2.07;;
29380;SDS011;16364;52.490;13.326;2022-09-12T00:23:35;2.53;;;2.07;;
29380;SDS011;16364;52.490;13.326;2022-09-12T00:26:02;2.90;;;2.07;;
29380;SDS011;16364;52.490;13.326;2022-09-12T00:28:28;2.67;;;2.43;;
29380;SDS011;16364;52.490;13.326;2022-09-12T00:30:53;2.17;;;1.97;;
29380;SDS011;16364;52.490;13.326;2022-09-12T00:33:18;3.30;;;2.30;;
29380;SDS011;16364;52.490;13.326;2022-09-12T00:35:47;4.30;;;2.20;;
29380;SDS011;16364;52.490;13.326;2022-09-12T00:38:13;4.13;;;2.17;;
29380;SDS011;16364;52.490;13.326;2022-09-12T00:40:38;2.83;;;2.40;;
29380;SDS011;16364;52.490;13.326;2022-09-12T00:43:04;3.20;;;2.10;;
29380;SDS011;16364;52.490;13.326;2022-09-12T00:45:29;2.30;;;2.10;;
29380;SDS011;16364;52.490;13.326;2022-09-12T00:47:55;2.30;;;2.10;;
29380;SDS011;16364;52.490;13.326;2022-09-12T00:50:21;2.20;;;2.00;;
29380;SDS011;16364;52.490;13.326;2022-09-12T00:52:51;2.30;;;2.10;;
29380;SDS011;16364;52.490;13.326;2022-09-12T00:55:24;2.80;;;2.50;;
29380;SDS011;16364;52.490;13.326;2022-09-12T00:58:01;2.60;;;2.40;;
29380;SDS011;16364;52.490;13.326;2022-09-12T01:00:28;5.07;;;2.30;;
29380;SDS011;16364;52.490;13.326;2022-09-12T01:02:54;2.70;;;2.50;;
29380;SDS011;16364;52.490;13.326;2022-09-12T01:05:21;3.90;;;2.87;;
29380;SDS011;16364;52.490;13.326;2022-09-12T01:07:47;2.90;;;2.60;;
29380;SDS011;16364;52.490;13.326;2022-09-12T01:10:14;2.70;;;2.40;;
29380;SDS011;16364;52.490;13.326;2022-09-12T01:12:39;2.60;;;2.40;;
29380;SDS011;16364;52.490;13.326;2022-09-12T01:15:06;3.13;;;2.60;;
29380;SDS011;16364;52.490;13.326;2022-09-12T01:17:38;4.10;;;3.30;;
29380;SDS011;16364;52.490;13.326;2022-09-12T01:22:59;2.60;;;2.40;;
29380;SDS011;16364;52.490;13.326;2022-09-12T01:35:45;3.17;;;2.97;;
29380;SDS011;16364;52.490;13.326;2022-09-12T01:43:24;3.07;;;2.87;;
29380;SDS011;16364;52.490;13.326;2022-09-12T01:45:59;2.67;;;2.47;;
29380;SDS011;16364;52.490;13.326;2022-09-12T01:48:28;3.50;;;2.77;;
29380;SDS011;16364;52.490;13.326;2022-09-12T01:51:00;2.90;;;2.60;;
29380;SDS011;16364;52.490;13.326;2022-09-12T01:53:36;3.40;;;2.90;;
29380;SDS011;16364;52.490;13.326;2022-09-12T01:56:05;3.30;;;3.10;;
29380;SDS011;16364;52.490;13.326;2022-09-12T01:59:15;3.27;;;2.77;;
29380;SDS011;16364;52.490;13.326;2022-09-12T02:01:22;3.30;;;2.77;;
29380;SDS011;16364;52.490;13.326;2022-09-12T02:03:53;3.80;;;2.80;;
29380;SDS011;16364;52.490;13.326;2022-09-12T02:06:25;2.80;;;2.60;;
29380;SDS011;16364;52.490;13.326;2022-09-12T02:08:52;6.77;;;3.40;;
29380;SDS011;16364;52.490;13.326;2022-09-12T02:11:19;3.60;;;2.83;;
29380;SDS011;16364;52.490;13.326;2022-09-12T02:16:15;3.43;;;3.00;;
29380;SDS011;16364;52.490;13.326;2022-09-12T02:18:46;5.20;;;3.23;;
29380;SDS011;16364;52.490;13.326;2022-09-12T02:21:14;6.10;;;4.23;;
29380;SDS011;16364;52.490;13.326;2022-09-12T02:23:43;5.50;;;3.70;;
29380;SDS011;16364;52.490;13.326;2022-09-12T02:26:12;4.87;;;4.47;;
29380;SDS011;16364;52.490;13.326;2022-09-12T02:28:40;3.90;;;3.20;;
29380;SDS011;16364;52.490;13.326;2022-09-12T02:31:22;3.90;;;3.60;;
29380;SDS011;16364;52.490;13.326;2022-09-12T02:33:59;3.30;;;3.10;;
29380;SDS011;16364;52.490;13.326;2022-09-12T02:37:11;3.63;;;3.13;;
29380;SDS011;16364;52.490;13.326;2022-09-12T02:39:16;3.83;;;3.40;;
29380;SDS011;16364;52.490;13.326;2022-09-12T02:41:54;3.80;;;3.40;;
29380;SDS011;16364;52.490;13.326;2022-09-12T02:44:20;4.20;;;3.90;;
29380;SDS011;16364;52.490;13.326;2022-09-12T02:46:46;4.33;;;4.00;;
29380;SDS011;16364;52.490;13.326;2022-09-12T02:49:13;3.97;;;3.57;;
29380;SDS011;16364;52.490;13.326;2022-09-12T02:51:38;3.80;;;3.50;;
29380;SDS011;16364;52.490;13.326;2022-09-12T02:54:04;4.33;;;3.93;;
29380;SDS011;16364;52.490;13.326;2022-09-12T02:56:31;3.67;;;3.37;;
29380;SDS011;16364;52.490;13.326;2022-09-12T02:59:05;4.13;;;3.20;;
29380;SDS011;16364;52.490;13.326;2022-09-12T03:06:42;3.83;;;3.50;;
29380;SDS011;16364;52.490;13.326;2022-09-12T03:09:11;4.20;;;3.90;;
29380;SDS011;16364;52.490;13.326;2022-09-12T03:19:32;3.63;;;3.40;;
29380;SDS011;16364;52.490;13.326;2022-09-12T03:29:27;4.10;;;3.80;;
29380;SDS011;16364;52.490;13.326;2022-09-12T03:31:54;3.70;;;3.40;;
29380;SDS011;16364;52.490;13.326;2022-09-12T03:34:20;3.70;;;3.40;;
29380;SDS011;16364;52.490;13.326;2022-09-12T03:36:46;2.83;;;2.53;;
29380;SDS011;16364;52.490;13.326;2022-09-12T03:39:11;3.57;;;3.27;;
29380;SDS011;16364;52.490;13.326;2022-09-12T03:41:37;3.30;;;2.90;;
29380;SDS011;16364;52.490;13.326;2022-09-12T03:44:02;3.57;;;3.37;;
29380;SDS011;16364;52.490;13.326;2022-09-12T03:46:27;3.20;;;3.00;;
29380;SDS011;16364;52.490;13.326;2022-09-12T03:48:52;3.63;;;3.43;;
29380;SDS011;16364;52.490;13.326;2022-09-12T03:51:17;3.53;;;3.23;;
29380;SDS011;16364;52.490;13.326;2022-09-12T03:53:43;4.20;;;3.90;;
29380;SDS011;16364;52.490;13.326;2022-09-12T03:56:08;4.70;;;3.97;;
29380;SDS011;16364;52.490;13.326;2022-09-12T03:58:34;3.30;;;3.00;;
29380;SDS011;16364;52.490;13.326;2022-09-12T04:01:04;4.90;;;4.50;;
29380;SDS011;16364;52.490;13.326;2022-09-12T04:03:30;4.00;;;3.80;;
29380;SDS011;16364;52.490;13.326;2022-09-12T04:05:56;3.60;;;3.40;;
29380;SDS011;16364;52.490;13.326;2022-09-12T04:08:21;4.27;;;3.70;;
29380;SDS011;16364;52.490;13.326;2022-09-12T04:10:46;4.50;;;3.87;;
29380;SDS011;16364;52.490;13.326;2022-09-12T04:13:11;4.17;;;3.83;;
29380;SDS011;16364;52.490;13.326;2022-09-12T04:15:36;3.97;;;3.57;;
29380;SDS011;16364;52.490;13.326;2022-09-12T04:18:02;4.87;;;4.50;;
29380;SDS011;16364;52.490;13.326;2022-09-12T04:20:27;4.97;;;4.60;;
29380;SDS011;16364;52.490;13.326;2022-09-12T04:22:52;4.80;;;4.50;;
29380;SDS011;16364;52.490;13.326;2022-09-12T04:25:17;5.60;;;5.10;;
29380;SDS011;16364;52.490;13.326;2022-09-12T04:27:43;5.40;;;4.90;;
29380;SDS011;16364;52.490;13.326;2022-09-12T04:30:08;5.47;;;4.97;;
29380;SDS011;16364;52.490;13.326;2022-09-12T04:32:34;4.50;;;4.10;;
29380;SDS011;16364;52.490;13.326;2022-09-12T04:34:59;5.10;;;4.80;;
29380;SDS011;16364;52.490;13.326;2022-09-12T04:37:24;6.40;;;5.90;;
29380;SDS011;16364;52.490;13.326;2022-09-12T04:39:49;5.00;;;4.70;;
29380;SDS011;16364;52.490;13.326;2022-09-12T04:42:15;5.40;;;4.97;;
29380;SDS011;16364;52.490;13.326;2022-09-12T04:44:40;6.07;;;5.47;;
29380;SDS011;16364;52.490;13.326;2022-09-12T04:47:06;5.73;;;5.20;;
29380;SDS011;16364;52.490;13.326;2022-09-12T04:49:31;6.73;;;5.80;;
29380;SDS011;16364;52.490;13.326;2022-09-12T04:51:57;6.80;;;6.20;;
29380;SDS011;16364;52.490;13.326;2022-09-12T04:54:22;5.27;;;4.87;;
29380;SDS011;16364;52.490;13.326;2022-09-12T04:56:47;7.10;;;5.97;;
29380;SDS011;16364;52.490;13.326;2022-09-12T04:59:13;6.27;;;5.17;;
29380;SDS011;16364;52.490;13.326;2022-09-12T05:01:42;5.93;;;5.43;;
29380;SDS011;16364;52.490;13.326;2022-09-12T05:04:11;7.30;;;6.10;;
29380;SDS011;16364;52.490;13.326;2022-09-12T05:06:37;5.87;;;5.37;;
29380;SDS011;16364;52.490;13.326;2022-09-12T05:09:03;7.17;;;6.47;;
29380;SDS011;16364;52.490;13.326;2022-09-12T05:11:30;7.30;;;6.00;;
29380;SDS011;16364;52.490;13.326;2022-09-12T05:13:55;8.30;;;6.80;;
29380;SDS011;16364;52.490;13.326;2022-09-12T05:16:21;10.60;;;7.30;;
29380;SDS011;16364;52.490;13.326;2022-09-12T05:18:46;7.37;;;6.67;;
29380;SDS011;16364;52.490;13.326;2022-09-12T05:21:13;9.60;;;6.80;;
29380;SDS011;16364;52.490;13.326;2022-09-12T05:23:39;7.97;;;7.20;;
29380;SDS011;16364;52.490;13.326;2022-09-12T05:26:05;6.60;;;6.00;;
29380;SDS011;16364;52.490;13.326;2022-09-12T05:28:31;6.37;;;5.50;;
29380;SDS011;16364;52.490;13.326;2022-09-12T05:33:25;6.53;;;5.97;;
29380;SDS011;16364;52.490;13.326;2022-09-12T05:35:50;7.80;;;7.00;;
29380;SDS011;16364;52.490;13.326;2022-09-12T05:38:16;8.27;;;7.47;;
29380;SDS011;16364;52.490;13.326;2022-09-12T05:40:42;6.50;;;6.00;;
29380;SDS011;16364;52.490;13.326;2022-09-12T05:43:07;6.40;;;5.80;;
29380;SDS011;16364;52.490;13.326;2022-09-12T05:45:32;5.63;;;5.23;;
29380;SDS011;16364;52.490;13.326;2022-09-12T05:47:58;6.60;;;5.97;;
29380;SDS011;16364;52.490;13.326;2022-09-12T05:50:23;7.73;;;6.50;;
29380;SDS011;16364;52.490;13.326;2022-09-12T05:52:49;9.90;;;7.40;;
29380;SDS011;16364;52.490;13.326;2022-09-12T05:55:14;6.90;;;6.20;;
29380;SDS011;16364;52.490;13.326;2022-09-12T05:57:42;6.90;;;6.33;;
29380;SDS011;16364;52.490;13.326;2022-09-12T06:00:07;7.00;;;6.50;;
29380;SDS011;16364;52.490;13.326;2022-09-12T06:02:33;7.83;;;6.80;;
29380;SDS011;16364;52.490;13.326;2022-09-12T06:04:59;6.20;;;5.33;;
29380;SDS011;16364;52.490;13.326;2022-09-12T06:07:24;7.53;;;6.80;;
29380;SDS011;16364;52.490;13.326;2022-09-12T06:09:49;9.45;;;8.55;;
29380;SDS011;16364;52.490;13.326;2022-09-12T06:12:14;9.13;;;8.23;;
29380;SDS011;16364;52.490;13.326;2022-09-12T06:14:39;9.77;;;8.15;;
29380;SDS011;16364;52.490;13.326;2022-09-12T06:17:04;10.90;;;8.90;;
29380;SDS011;16364;52.490;13.326;2022-09-12T06:19:30;8.53;;;7.73;;
29380;SDS011;16364;52.490;13.326;2022-09-12T06:21:55;10.33;;;8.57;;
29380;SDS011;16364;52.490;13.326;2022-09-12T06:24:21;9.10;;;7.50;;
29380;SDS011;16364;52.490;13.326;2022-09-12T06:26:46;8.67;;;7.77;;
29380;SDS011;16364;52.490;13.326;2022-09-12T06:29:11;7.70;;;6.90;;
29380;SDS011;16364;52.490;13.326;2022-09-12T06:31:38;8.03;;;7.03;;
29380;SDS011;16364;52.490;13.326;2022-09-12T06:34:04;8.33;;;6.97;;
29380;SDS011;16364;52.490;13.326;2022-09-12T06:36:31;7.90;;;7.10;;
29380;SDS011;16364;52.490;13.326;2022-09-12T06:38:57;10.57;;;7.33;;
29380;SDS011;16364;52.490;13.326;2022-09-12T06:41:23;7.33;;;6.70;;
29380;SDS011;16364;52.490;13.326;2022-09-12T06:43:49;7.53;;;6.90;;
29380;SDS011;16364;52.490;13.326;2022-09-12T06:46:14;7.17;;;6.03;;
29380;SDS011;16364;52.490;13.326;2022-09-12T06:48:40;5.43;;;4.90;;
29380;SDS011;16364;52.490;13.326;2022-09-12T06:51:07;10.90;;;6.63;;
29380;SDS011;16364;52.490;13.326;2022-09-12T06:53:33;7.03;;;6.37;;
29380;SDS011;16364;52.490;13.326;2022-09-12T06:55:59;9.67;;;8.67;;
29380;SDS011;16364;52.490;13.326;2022-09-12T06:58:25;7.63;;;6.90;;
29380;SDS011;16364;52.490;13.326;2022-09-12T07:00:50;9.73;;;7.27;;
29380;SDS011;16364;52.490;13.326;2022-09-12T07:03:16;11.97;;;9.37;;
29380;SDS011;16364;52.490;13.326;2022-09-12T07:05:42;6.83;;;6.07;;
29380;SDS011;16364;52.490;13.326;2022-09-12T07:08:07;5.97;;;5.37;;
29380;SDS011;16364;52.490;13.326;2022-09-12T07:10:32;6.43;;;5.70;;
29380;SDS011;16364;52.490;13.326;2022-09-12T07:12:57;6.32;;;5.72;;
29380;SDS011;16364;52.490;13.326;2022-09-12T07:15:23;7.23;;;5.70;;
29380;SDS011;16364;52.490;13.326;2022-09-12T07:17:48;6.50;;;5.70;;
29380;SDS011;16364;52.490;13.326;2022-09-12T07:20:13;6.47;;;5.83;;
29380;SDS011;16364;52.490;13.326;2022-09-12T07:22:38;7.67;;;6.00;;
29380;SDS011;16364;52.490;13.326;2022-09-12T07:25:03;4.60;;;4.20;;
29380;SDS011;16364;52.490;13.326;2022-09-12T07:27:29;5.00;;;4.60;;
29380;SDS011;16364;52.490;13.326;2022-09-12T07:29:54;6.80;;;6.20;;
29380;SDS011;16364;52.490;13.326;2022-09-12T07:32:19;6.10;;;3.77;;
29380;SDS011;16364;52.490;13.326;2022-09-12T07:34:45;4.40;;;3.83;;
29380;SDS011;16364;52.490;13.326;2022-09-12T07:37:10;3.90;;;3.50;;
29380;SDS011;16364;52.490;13.326;2022-09-12T07:39:35;5.23;;;4.70;;
29380;SDS011;16364;52.490;13.326;2022-09-12T07:42:01;6.37;;;4.47;;
29380;SDS011;16364;52.490;13.326;2022-09-12T07:44:27;4.30;;;3.83;;
29380;SDS011;16364;52.490;13.326;2022-09-12T07:46:53;4.83;;;4.37;;
29380;SDS011;16364;52.490;13.326;2022-09-12T07:49:18;5.03;;;4.70;;
29380;SDS011;16364;52.490;13.326;2022-09-12T07:51:43;4.67;;;4.17;;
29380;SDS011;16364;52.490;13.326;2022-09-12T07:54:08;3.70;;;3.40;;
29380;SDS011;16364;52.490;13.326;2022-09-12T07:56:34;5.10;;;4.00;;
29380;SDS011;16364;52.490;13.326;2022-09-12T07:58:59;3.43;;;3.13;;
29380;SDS011;16364;52.490;13.326;2022-09-12T08:01:24;3.10;;;2.80;;
29380;SDS011;16364;52.490;13.326;2022-09-12T08:03:53;3.30;;;2.93;;
29380;SDS011;16364;52.490;13.326;2022-09-12T08:06:19;3.37;;;3.07;;
29380;SDS011;16364;52.490;13.326;2022-09-12T08:08:45;4.33;;;3.43;;
29380;SDS011;16364;52.490;13.326;2022-09-12T08:11:12;5.20;;;3.60;;
29380;SDS011;16364;52.490;13.326;2022-09-12T08:13:38;2.97;;;2.77;;
29380;SDS011;16364;52.490;13.326;2022-09-12T08:16:06;4.87;;;3.73;;
29380;SDS011;16364;52.490;13.326;2022-09-12T08:18:33;4.63;;;3.70;;
29380;SDS011;16364;52.490;13.326;2022-09-12T08:20:59;3.83;;;3.40;;
29380;SDS011;16364;52.490;13.326;2022-09-12T08:23:24;3.90;;;2.80;;
29380;SDS011;16364;52.490;13.326;2022-09-12T08:25:50;3.40;;;1.90;;
29380;SDS011;16364;52.490;13.326;2022-09-12T08:28:15;8.10;;;3.13;;
29380;SDS011;16364;52.490;13.326;2022-09-12T08:30:40;20.43;;;3.17;;
29380;SDS011;16364;52.490;13.326;2022-09-12T08:33:06;4.40;;;2.00;;
29380;SDS011;16364;52.490;13.326;2022-09-12T08:35:31;3.10;;;1.77;;
29380;SDS011;16364;52.490;13.326;2022-09-12T08:37:57;1.93;;;1.83;;
29380;SDS011;16364;52.490;13.326;2022-09-12T08:40:22;1.30;;;1.20;;
29380;SDS011;16364;52.490;13.326;2022-09-12T08:43:06;2.33;;;1.10;;
29380;SDS011;16364;52.490;13.326;2022-09-12T08:45:42;4.00;;;1.57;;
29380;SDS011;16364;52.490;13.326;2022-09-12T08:48:11;2.50;;;1.37;;
29380;SDS011;16364;52.490;13.326;2022-09-12T08:50:37;2.10;;;1.20;;
29380;SDS011;16364;52.490;13.326;2022-09-12T08:53:03;2.07;;;1.50;;
29380;SDS011;16364;52.490;13.326;2022-09-12T08:57:56;1.65;;;1.23;;
29380;SDS011;16364;52.490;13.326;2022-09-12T09:00:22;1.70;;;1.13;;
29380;SDS011;16364;52.490;13.326;2022-09-12T09:03:03;2.07;;;1.03;;
29380;SDS011;16364;52.490;13.326;2022-09-12T09:18:54;1.20;;;1.10;;
29380;SDS011;16364;52.490;13.326;2022-09-12T09:24:05;1.53;;;1.10;;
29380;SDS011;16364;52.490;13.326;2022-09-12T09:29:01;1.30;;;1.20;;
29380;SDS011;16364;52.490;13.326;2022-09-12T09:31:32;1.20;;;1.10;;
29380;SDS011;16364;52.490;13.326;2022-09-12T09:33:58;1.03;;;0.93;;
29380;SDS011;16364;52.490;13.326;2022-09-12T09:39:01;1.33;;;1.10;;
29380;SDS011;16364;52.490;13.326;2022-09-12T09:44:02;1.00;;;0.90;;
29380;SDS011;16364;52.490;13.326;2022-09-12T09:46:27;1.20;;;1.07;;
29380;SDS011;16364;52.490;13.326;2022-09-12T09:48:53;1.60;;;1.20;;
29380;SDS011;16364;52.490;13.326;2022-09-12T09:51:24;1.10;;;1.00;;
29380;SDS011;16364;52.490;13.326;2022-09-12T09:54:00;1.70;;;0.97;;
29380;SDS011;16364;52.490;13.326;2022-09-12T09:58:51;2.00;;;1.00;;
29380;SDS011;16364;52.490;13.326;2022-09-12T10:01:17;0.87;;;0.87;;
29380;SDS011;16364;52.490;13.326;2022-09-12T10:03:46;1.03;;;1.00;;
29380;SDS011;16364;52.490;13.326;2022-09-12T10:08:43;1.20;;;1.10;;
29380;SDS011;16364;52.490;13.326;2022-09-12T10:16:19;1.10;;;1.00;;
29380;SDS011;16364;52.490;13.326;2022-09-12T10:18:44;2.53;;;1.10;;
29380;SDS011;16364;52.490;13.326;2022-09-12T10:21:14;1.17;;;1.00;;
29380;SDS011;16364;52.490;13.326;2022-09-12T10:23:40;1.40;;;1.17;;
29380;SDS011;16364;52.490;13.326;2022-09-12T10:26:10;1.60;;;1.50;;
29380;SDS011;16364;52.490;13.326;2022-09-12T10:28:40;1.50;;;1.40;;
29380;SDS011;16364;52.490;13.326;2022-09-12T10:31:06;1.37;;;1.00;;
29380;SDS011;16364;52.490;13.326;2022-09-12T10:33:34;2.50;;;0.90;;
29380;SDS011;16364;52.490;13.326;2022-09-12T10:36:04;2.10;;;1.10;;
29380;SDS011;16364;52.490;13.326;2022-09-12T10:38:30;1.63;;;1.10;;
29380;SDS011;16364;52.490;13.326;2022-09-12T10:43:29;1.10;;;1.00;;
29380;SDS011;16364;52.490;13.326;2022-09-12T10:48:38;2.67;;;1.20;;
29380;SDS011;16364;52.490;13.326;2022-09-12T10:51:03;1.10;;;1.00;;
29380;SDS011;16364;52.490;13.326;2022-09-12T10:53:39;1.50;;;1.13;;
29380;SDS011;16364;52.490;13.326;2022-09-12T10:56:09;1.20;;;1.10;;
29380;SDS011;16364;52.490;13.326;2022-09-12T11:01:29;1.47;;;1.00;;
29380;SDS011;16364;52.490;13.326;2022-09-12T11:04:04;1.30;;;1.10;;
29380;SDS011;16364;52.490;13.326;2022-09-12T11:11:55;1.10;;;1.00;;
29380;SDS011;16364;52.490;13.326;2022-09-12T11:17:00;1.43;;;1.00;;
29380;SDS011;16364;52.490;13.326;2022-09-12T11:19:33;1.50;;;1.00;;
29380;SDS011;16364;52.490;13.326;2022-09-12T11:29:50;0.80;;;0.80;;
29380;SDS011;16364;52.490;13.326;2022-09-12T11:39:45;0.77;;;0.77;;
29380;SDS011;16364;52.490;13.326;2022-09-12T11:42:17;0.80;;;0.80;;
29380;SDS011;16364;52.490;13.326;2022-09-12T11:44:45;1.00;;;0.90;;
29380;SDS011;16364;52.490;13.326;2022-09-12T11:47:12;1.90;;;1.20;;
29380;SDS011;16364;52.490;13.326;2022-09-12T11:52:25;2.43;;;0.90;;
29380;SDS011;16364;52.490;13.326;2022-09-12T11:59:56;0.80;;;0.80;;
29380;SDS011;16364;52.490;13.326;2022-09-12T12:02:26;0.93;;;0.90;;
29380;SDS011;16364;52.490;13.326;2022-09-12T12:07:20;1.10;;;1.00;;
29380;SDS011;16364;52.490;13.326;2022-09-12T12:09:46;1.33;;;1.00;;
29380;SDS011;16364;52.490;13.326;2022-09-12T12:12:14;1.20;;;0.90;;
29380;SDS011;16364;52.490;13.326;2022-09-12T12:14:42;1.57;;;1.47;;
29380;SDS011;16364;52.490;13.326;2022-09-12T12:17:16;1.10;;;0.90;;
29380;SDS011;16364;52.490;13.326;2022-09-12T12:19:42;1.63;;;0.97;;
29380;SDS011;16364;52.490;13.326;2022-09-12T12:22:14;1.33;;;0.80;;
29380;SDS011;16364;52.490;13.326;2022-09-12T12:30:26;0.80;;;0.80;;
29380;SDS011;16364;52.490;13.326;2022-09-12T12:32:51;1.33;;;1.23;;
29380;SDS011;16364;52.490;13.326;2022-09-12T12:40:49;0.80;;;0.80;;
29380;SDS011;16364;52.490;13.326;2022-09-12T12:43:28;0.80;;;0.80;;
29380;SDS011;16364;52.490;13.326;2022-09-12T12:46:00;1.50;;;0.80;;
29380;SDS011;16364;52.490;13.326;2022-09-12T12:48:26;1.10;;;0.97;;
29380;SDS011;16364;52.490;13.326;2022-09-12T12:50:53;1.40;;;1.00;;
29380;SDS011;16364;52.490;13.326;2022-09-12T12:53:20;1.00;;;0.90;;
29380;SDS011;16364;52.490;13.326;2022-09-12T12:55:47;0.93;;;0.83;;
29380;SDS011;16364;52.490;13.326;2022-09-12T12:58:22;0.97;;;0.87;;
29380;SDS011;16364;52.490;13.326;2022-09-12T13:01:00;0.80;;;0.80;;
29380;SDS011;16364;52.490;13.326;2022-09-12T13:03:28;1.00;;;0.90;;
29380;SDS011;16364;52.490;13.326;2022-09-12T13:05:59;1.10;;;1.00;;
29380;SDS011;16364;52.490;13.326;2022-09-12T13:08:28;1.10;;;1.00;;
29380;SDS011;16364;52.490;13.326;2022-09-12T13:10:57;1.10;;;0.80;;
29380;SDS011;16364;52.490;13.326;2022-09-12T13:13:27;2.57;;;1.00;;
29380;SDS011;16364;52.490;13.326;2022-09-12T13:15:54;1.23;;;1.10;;
29380;SDS011;16364;52.490;13.326;2022-09-12T13:18:26;1.23;;;0.90;;
29380;SDS011;16364;52.490;13.326;2022-09-12T13:20:54;1.83;;;0.90;;
29380;SDS011;16364;52.490;13.326;2022-09-12T13:23:21;3.13;;;1.00;;
29380;SDS011;16364;52.490;13.326;2022-09-12T13:25:51;2.10;;;0.90;;
29380;SDS011;16364;52.490;13.326;2022-09-12T13:28:17;3.80;;;1.00;;
29380;SDS011;16364;52.490;13.326;2022-09-12T13:30:46;1.07;;;0.97;;
29380;SDS011;16364;52.490;13.326;2022-09-12T13:35:40;1.73;;;0.93;;
29380;SDS011;16364;52.490;13.326;2022-09-12T13:41:18;2.13;;;1.10;;
29380;SDS011;16364;52.490;13.326;2022-09-12T13:43:46;2.80;;;0.87;;
29380;SDS011;16364;52.490;13.326;2022-09-12T13:46:12;1.03;;;0.93;;
29380;SDS011;16364;52.490;13.326;2022-09-12T13:48:40;1.40;;;1.03;;
29380;SDS011;16364;52.490;13.326;2022-09-12T13:51:05;2.70;;;1.00;;
29380;SDS011;16364;52.490;13.326;2022-09-12T13:53:43;1.57;;;1.20;;
29380;SDS011;16364;52.490;13.326;2022-09-12T13:56:17;2.30;;;1.00;;
29380;SDS011;16364;52.490;13.326;2022-09-12T14:01:20;1.03;;;0.93;;
29380;SDS011;16364;52.490;13.326;2022-09-12T14:03:53;1.50;;;0.93;;
29380;SDS011;16364;52.490;13.326;2022-09-12T14:06:47;1.10;;;1.00;;
29380;SDS011;16364;52.490;13.326;2022-09-12T14:09:25;2.83;;;0.83;;
29380;SDS011;16364;52.490;13.326;2022-09-12T14:11:52;1.10;;;1.00;;
29380;SDS011;16364;52.490;13.326;2022-09-12T14:14:34;2.70;;;1.03;;
29380;SDS011;16364;52.490;13.326;2022-09-12T14:17:00;1.10;;;1.00;;
29380;SDS011;16364;52.490;13.326;2022-09-12T14:19:26;3.70;;;0.93;;
29380;SDS011;16364;52.490;13.326;2022-09-12T14:21:53;1.10;;;1.00;;
29380;SDS011;16364;52.490;13.326;2022-09-12T14:24:18;0.90;;;0.90;;
29380;SDS011;16364;52.490;13.326;2022-09-12T14:26:47;1.03;;;0.93;;
29380;SDS011;16364;52.490;13.326;2022-09-12T14:29:14;2.30;;;1.10;;
29380;SDS011;16364;52.490;13.326;2022-09-12T14:31:41;1.43;;;1.00;;
29380;SDS011;16364;52.490;13.326;2022-09-12T14:34:14;0.90;;;0.87;;
29380;SDS011;16364;52.490;13.326;2022-09-12T14:39:22;1.30;;;1.00;;
29380;SDS011;16364;52.490;13.326;2022-09-12T14:41:48;1.53;;;0.90;;
29380;SDS011;16364;52.490;13.326;2022-09-12T14:44:22;1.00;;;0.90;;
29380;SDS011;16364;52.490;13.326;2022-09-12T14:46:48;2.70;;;1.10;;
29380;SDS011;16364;52.490;13.326;2022-09-12T14:59:29;1.07;;;0.97;;
29380;SDS011;16364;52.490;13.326;2022-09-12T15:04:42;1.23;;;1.13;;
29380;SDS011;16364;52.490;13.326;2022-09-12T15:09:38;1.37;;;1.20;;
29380;SDS011;16364;52.490;13.326;2022-09-12T15:12:04;1.13;;;1.03;;
29380;SDS011;16364;52.490;13.326;2022-09-12T15:14:29;1.20;;;1.00;;
29380;SDS011;16364;52.490;13.326;2022-09-12T15:16:54;1.30;;;1.07;;
29380;SDS011;16364;52.490;13.326;2022-09-12T15:19:20;0.93;;;0.90;;
29380;SDS011;16364;52.490;13.326;2022-09-12T15:21:45;3.17;;;1.10;;
29380;SDS011;16364;52.490;13.326;2022-09-12T15:24:10;2.30;;;1.20;;
29380;SDS011;16364;52.490;13.326;2022-09-12T15:26:35;1.30;;;1.10;;
29380;SDS011;16364;52.490;13.326;2022-09-12T15:29:00;0.90;;;0.90;;
29380;SDS011;16364;52.490;13.326;2022-09-12T15:31:27;1.10;;;1.00;;
29380;SDS011;16364;52.490;13.326;2022-09-12T15:33:53;1.63;;;1.13;;
29380;SDS011;16364;52.490;13.326;2022-09-12T15:36:19;1.20;;;1.10;;
29380;SDS011;16364;52.490;13.326;2022-09-12T15:38:46;1.40;;;1.30;;
29380;SDS011;16364;52.490;13.326;2022-09-12T15:41:12;1.10;;;1.00;;
29380;SDS011;16364;52.490;13.326;2022-09-12T15:43:38;1.77;;;1.10;;
29380;SDS011;16364;52.490;13.326;2022-09-12T15:46:04;1.33;;;1.10;;
29380;SDS011;16364;52.490;13.326;2022-09-12T15:48:30;0.80;;;0.80;;
29380;SDS011;16364;52.490;13.326;2022-09-12T15:50:56;2.80;;;1.20;;
29380;SDS011;16364;52.490;13.326;2022-09-12T15:53:25;1.63;;;1.30;;
29380;SDS011;16364;52.490;13.326;2022-09-12T15:55:50;1.47;;;1.37;;
29380;SDS011;16364;52.490;13.326;2022-09-12T15:58:15;1.30;;;1.20;;
29380;SDS011;16364;52.490;13.326;2022-09-12T16:00:41;1.70;;;1.00;;
29380;SDS011;16364;52.490;13.326;2022-09-12T16:03:08;1.30;;;1.20;;
29380;SDS011;16364;52.490;13.326;2022-09-12T16:05:39;1.70;;;1.10;;
29380;SDS011;16364;52.490;13.326;2022-09-12T16:08:04;1.70;;;1.60;;
29380;SDS011;16364;52.490;13.326;2022-09-12T16:10:29;1.33;;;1.23;;
29380;SDS011;16364;52.490;13.326;2022-09-12T16:12:55;1.53;;;1.43;;
29380;SDS011;16364;52.490;13.326;2022-09-12T16:15:21;1.50;;;1.20;;
29380;SDS011;16364;52.490;13.326;2022-09-12T16:17:47;1.20;;;1.10;;
29380;SDS011;16364;52.490;13.326;2022-09-12T16:20:13;1.20;;;1.00;;
29380;SDS011;16364;52.490;13.326;2022-09-12T16:22:38;1.27;;;1.17;;
29380;SDS011;16364;52.490;13.326;2022-09-12T16:25:03;2.03;;;1.33;;
29380;SDS011;16364;52.490;13.326;2022-09-12T16:27:29;1.63;;;1.13;;
29380;SDS011;16364;52.490;13.326;2022-09-12T16:29:54;1.47;;;1.37;;
29380;SDS011;16364;52.490;13.326;2022-09-12T16:32:19;1.30;;;1.20;;
29380;SDS011;16364;52.490;13.326;2022-09-12T16:34:45;1.17;;;1.00;;
29380;SDS011;16364;52.490;13.326;2022-09-12T16:37:10;3.53;;;2.45;;
29380;SDS011;16364;52.490;13.326;2022-09-12T16:39:35;2.67;;;2.07;;
29380;SDS011;16364;52.490;13.326;2022-09-12T16:42:00;1.60;;;1.50;;
29380;SDS011;16364;52.490;13.326;2022-09-12T16:44:25;1.57;;;1.47;;
29380;SDS011;16364;52.490;13.326;2022-09-12T16:46:51;1.27;;;1.17;;
29380;SDS011;16364;52.490;13.326;2022-09-12T16:49:16;1.23;;;1.13;;
29380;SDS011;16364;52.490;13.326;2022-09-12T16:51:42;3.63;;;1.23;;
29380;SDS011;16364;52.490;13.326;2022-09-12T16:54:11;2.03;;;1.03;;
29380;SDS011;16364;52.490;13.326;2022-09-12T16:56:36;1.40;;;1.30;;
29380;SDS011;16364;52.490;13.326;2022-09-12T16:59:02;1.27;;;1.17;;
29380;SDS011;16364;52.490;13.326;2022-09-12T17:01:29;1.23;;;1.13;;
29380;SDS011;16364;52.490;13.326;2022-09-12T17:03:54;2.13;;;1.40;;
29380;SDS011;16364;52.490;13.326;2022-09-12T17:06:20;1.30;;;1.20;;
29380;SDS011;16364;52.490;13.326;2022-09-12T17:08:47;2.73;;;1.30;;
29380;SDS011;16364;52.490;13.326;2022-09-12T17:11:14;1.10;;;1.00;;
29380;SDS011;16364;52.490;13.326;2022-09-12T17:13:39;1.30;;;1.20;;